Green Garnet — 3FEH6 — position and weather

sailwx.info

Track history (hours):
 
Tides and Currents Weather Stations Pressure Air Temp Water Temp Dewpoint Dewpoint Depression Visibility Wind Speed Wind Dir Waves Ship Positions

Green Garnet

Last reported at 2017-Aug-10 05:51 UTC. Time now 2017-Aug-16 23:43 UTC.
Position N 22°52' E 119°55'.

Length 209 m; draft 10 m.

Type: Cargo ship. MMSI: 356345000.

Date/timePositionNaut miles runAvg speedWind from/ knotsBaromVisibWave heightAir tempDewpointWater temp
2017-Aug-10 05:51N 22°52' E 119°55'411.1
2017-Aug-10 05:30N 22°49' E 119°55'611.6
2017-Aug-10 04:59N 22°43' E 119°55'611.9
2017-Aug-10 04:30N 22°37' E 119°55'612.4
2017-Aug-10 04:00N 22°31' E 119°55'  
2017-Aug-03 13:13N 15°57' E 109°01'311.8
2017-Aug-03 12:56N 15°59' E 109°04'711.7
2017-Aug-03 12:20N 16°03' E 109°11'511.8
2017-Aug-03 11:53N 16°07' E 109°15'30410.3
2017-Aug-02 06:27N 20°56' E 110°50'511.5
2017-Aug-02 06:00N 20°60' E 110°46'510.5
2017-Aug-02 05:29N 21°03' E 110°41'611.5
2017-Aug-02 05:00N 21°04' E 110°36'611.2
2017-Aug-02 04:30N 21°05' E 110°30'4 7.6
2017-Aug-02 04:00N 21°07' E 110°26'4 8.5
2017-Aug-02 03:30N 21°11' E 110°25'0 0.3
2017-Aug-02 02:50N 21°11' E 110°24'0 0.0
2017-Aug-02 02:28N 21°11' E 110°24'0 0.0
2017-Aug-02 01:59N 21°11' E 110°24'  
Track history (hours):
 
Tides and Currents Weather Stations Pressure Air Temp Water Temp Dewpoint Dewpoint Depression Visibility Wind Speed Wind Dir Waves Ship Positions

Green Garnet

Last reported at 2017-Aug-10 05:51 UTC. Time now 2017-Aug-16 23:43 UTC.
Position N 22°52' E 119°55'.

Length 209 m; draft 10 m.

Type: Cargo ship. MMSI: 356345000.

Date/timePositionNaut miles runAvg speedWind from/ knotsBaromVisibWave heightAir tempDewpointWater temp
2017-Aug-10 05:51N 22°52' E 119°55'411.1
2017-Aug-10 05:30N 22°49' E 119°55'611.6
2017-Aug-10 04:59N 22°43' E 119°55'611.9
2017-Aug-10 04:30N 22°37' E 119°55'612.4
2017-Aug-10 04:00N 22°31' E 119°55'  
2017-Aug-03 13:13N 15°57' E 109°01'311.8
2017-Aug-03 12:56N 15°59' E 109°04'711.7
2017-Aug-03 12:20N 16°03' E 109°11'511.8
2017-Aug-03 11:53N 16°07' E 109°15'30410.3
2017-Aug-02 06:27N 20°56' E 110°50'511.5
2017-Aug-02 06:00N 20°60' E 110°46'510.5
2017-Aug-02 05:29N 21°03' E 110°41'611.5
2017-Aug-02 05:00N 21°04' E 110°36'611.2
2017-Aug-02 04:30N 21°05' E 110°30'4 7.6
2017-Aug-02 04:00N 21°07' E 110°26'4 8.5
2017-Aug-02 03:30N 21°11' E 110°25'0 0.3
2017-Aug-02 02:50N 21°11' E 110°24'0 0.0
2017-Aug-02 02:28N 21°11' E 110°24'0 0.0
2017-Aug-02 01:59N 21°11' E 110°24'  

Dump ship's entire track history